Time;durP1;ratioP1;P1;durP2;ratioP2;P2;SDS_P1;SDS_P2;PMS_P1;PMS_P2;Temp;Humidity;BMP_temperature;BMP_pressure;BME280_temperature;BME280_humidity;BME280_pressure;Samples;Min_cycle;Max_cycle;Signal;HPM_P1;HPM_P2
2022/01/10 00:00:25;;;;;;;1.98;0.88;;;11.90;58.80;;;;;;20537516;28;20036;-73
2022/01/10 00:10:25;;;;;;;1.73;0.77;;;11.90;58.90;;;;;;20549845;28;20046;-73
2022/01/10 00:20:26;;;;;;;6.75;0.95;;;11.90;58.90;;;;;;20564403;28;20122;-73
2022/01/10 00:30:27;;;;;;;4.40;1.40;;;11.90;59.00;;;;;;20533069;28;20042;-75
2022/01/10 00:40:27;;;;;;;4.00;1.93;;;11.90;59.00;;;;;;20548446;28;20105;-74
2022/01/10 00:50:28;;;;;;;2.88;1.10;;;11.90;59.00;;;;;;20532293;28;20339;-72
2022/01/10 01:00:30;;;;;;;7.57;1.70;;;11.90;59.10;;;;;;20531903;28;20125;-73
2022/01/10 01:10:58;;;;;;;2.70;1.17;;;11.80;59.00;;;;;;20532670;28;20035;-73
2022/01/10 01:31:10;;;;;;;4.53;1.20;;;11.80;59.10;;;;;;20546299;28;20073;-74
2022/01/10 01:51:20;;;;;;;4.97;1.50;;;11.80;59.10;;;;;;20546079;28;20433;-73
2022/01/10 02:01:22;;;;;;;6.82;1.60;;;11.90;59.20;;;;;;20544286;28;20054;-74
2022/01/10 02:11:23;;;;;;;6.72;2.05;;;11.80;59.20;;;;;;20542365;28;20047;-73
2022/01/10 02:21:25;;;;;;;6.00;1.67;;;11.80;59.20;;;;;;20543076;28;20394;-72
2022/01/10 02:31:27;;;;;;;4.38;1.35;;;11.80;59.20;;;;;;20541745;28;20412;-72
2022/01/10 02:41:30;;;;;;;2.63;1.63;;;11.80;59.20;;;;;;20540496;28;20050;-73
2022/01/10 02:51:30;;;;;;;3.97;1.77;;;11.80;59.30;;;;;;20541085;28;20363;-75
2022/01/10 03:01:31;;;;;;;5.30;1.85;;;11.70;59.20;;;;;;20554730;28;20110;-72
2022/01/10 03:11:33;;;;;;;3.47;1.95;;;11.70;59.20;;;;;;20538127;28;20129;-72
2022/01/10 03:21:35;;;;;;;3.97;1.67;;;11.70;59.20;;;;;;20537347;28;20027;-75
2022/01/10 03:31:36;;;;;;;5.85;1.55;;;11.70;59.20;;;;;;20552931;28;20043;-74
2022/01/10 03:41:37;;;;;;;4.40;1.42;;;11.70;59.30;;;;;;20537187;28;20520;-73
2022/01/10 03:51:38;;;;;;;10.70;2.83;;;11.70;59.30;;;;;;20534386;28;20047;-74
2022/01/10 04:01:39;;;;;;;6.47;1.63;;;11.70;59.40;;;;;;20550419;28;20037;-75
2022/01/10 04:11:42;;;;;;;5.75;2.30;;;11.70;59.40;;;;;;20534296;28;20488;-73
2022/01/10 04:21:43;;;;;;;8.98;2.40;;;11.70;59.40;;;;;;20533835;28;20035;-72
2022/01/10 04:31:44;;;;;;;6.22;2.92;;;11.60;59.40;;;;;;20532950;28;20473;-73
2022/01/10 04:41:47;;;;;;;5.20;2.13;;;11.70;59.50;;;;;;20517584;28;20094;-73
2022/01/10 04:51:48;;;;;;;7.43;2.47;;;11.60;59.50;;;;;;20533048;28;20038;-72
2022/01/10 05:01:49;;;;;;;3.08;1.95;;;11.60;59.50;;;;;;20536659;28;20038;-73
2022/01/10 05:11:50;;;;;;;4.68;2.00;;;11.70;59.60;;;;;;20547306;28;20039;-74
2022/01/10 05:21:51;;;;;;;9.18;2.30;;;12.20;58.50;;;;;;20562024;28;20054;-73
2022/01/10 05:31:52;;;;;;;3.63;2.25;;;13.20;56.30;;;;;;20545848;28;20094;-73
2022/01/10 05:42:00;;;;;;;11.50;2.45;;;14.10;54.00;;;;;;20546594;28;20393;-73
2022/01/10 05:52:03;;;;;;;3.08;1.95;;;14.90;51.90;;;;;;20560091;28;20393;-73
2022/01/10 06:02:09;;;;;;;;;;;15.30;50.70;;;;;;20530926;28;20178;-74
2022/01/10 06:12:10;;;;;;;4.67;2.20;;;15.50;50.20;;;;;;20542603;28;19918;-77
2022/01/10 06:22:13;;;;;;;3.53;1.70;;;15.40;50.10;;;;;;20613695;28;20335;-76
2022/01/10 06:32:14;;;;;;;8.45;2.15;;;15.10;50.30;;;;;;20641356;28;20377;-73
2022/01/10 06:42:15;;;;;;;8.93;2.45;;;14.30;51.60;;;;;;20672977;28;20054;-81
2022/01/10 06:52:16;;;;;;;4.22;2.17;;;13.60;53.10;;;;;;20670144;28;20049;-84
2022/01/10 07:02:20;;;;;;;4.63;2.10;;;13.00;54.50;;;;;;20624713;28;20038;-83
2022/01/10 07:12:23;;;;;;;5.60;2.45;;;12.60;55.70;;;;;;20629357;28;20069;-83
2022/01/10 07:22:32;;;;;;;4.97;1.98;;;12.20;56.60;;;;;;20624229;28;20033;-84
2022/01/10 07:32:33;;;;;;;6.30;2.30;;;12.00;57.40;;;;;;20638316;28;20042;-83
2022/01/10 07:42:34;;;;;;;3.72;1.88;;;11.90;58.00;;;;;;20620637;28;20033;-84
2022/01/10 07:52:43;;;;;;;3.03;1.73;;;11.90;58.30;;;;;;20623695;28;20034;-85
2022/01/10 08:02:44;;;;;;;5.30;2.25;;;11.80;58.50;;;;;;20620922;28;20152;-83
2022/01/10 08:12:46;;;;;;;6.15;2.38;;;11.80;58.70;;;;;;20645028;28;20054;-83
2022/01/10 08:22:47;;;;;;;4.35;2.60;;;11.80;58.80;;;;;;20715119;28;20026;-83
2022/01/10 08:32:50;;;;;;;5.38;2.05;;;11.80;58.90;;;;;;20747641;28;20431;-84
2022/01/10 08:42:51;;;;;;;5.22;2.50;;;11.80;59.00;;;;;;20759119;28;20041;-84
2022/01/10 08:52:51;;;;;;;4.18;1.85;;;11.80;59.10;;;;;;20702630;28;20628;-84
2022/01/10 09:02:52;;;;;;;4.78;2.13;;;11.80;59.20;;;;;;20677148;28;20039;-84
2022/01/10 09:12:53;;;;;;;4.20;1.87;;;11.70;59.30;;;;;;20643305;28;20129;-85
2022/01/10 09:22:54;;;;;;;4.60;2.38;;;11.70;59.40;;;;;;20660862;28;20317;-84
2022/01/10 09:32:56;;;;;;;5.68;2.30;;;11.70;59.50;;;;;;20676541;28;20053;-84
2022/01/10 09:42:57;;;;;;;3.83;2.00;;;11.60;59.50;;;;;;20643627;28;20386;-85
2022/01/10 09:52:57;;;;;;;6.72;2.42;;;11.60;59.60;;;;;;20644868;28;20045;-82
2022/01/10 10:03:00;;;;;;;4.33;1.93;;;11.60;59.70;;;;;;20660420;28;20026;-83
2022/01/10 10:13:01;;;;;;;8.63;3.05;;;11.60;60.40;;;;;;20644629;28;20396;-83
2022/01/10 10:23:02;;;;;;;4.38;2.55;;;11.60;59.80;;;;;;20644941;28;20068;-83
2022/01/10 10:33:13;;;;;;;6.28;2.53;;;11.60;59.90;;;;;;20736188;28;20472;-84
2022/01/10 10:43:14;;;;;;;6.30;2.60;;;11.60;59.90;;;;;;20739876;28;20065;-82
2022/01/10 10:53:14;;;;;;;4.25;1.98;;;11.50;60.00;;;;;;20675523;28;20043;-78
2022/01/10 11:03:18;;;;;;;5.85;2.45;;;11.60;60.10;;;;;;20637103;28;20374;-78
2022/01/10 11:13:20;;;;;;;3.92;2.22;;;11.60;60.10;;;;;;20621464;28;20056;-80
2022/01/10 11:23:21;;;;;;;6.30;2.15;;;12.20;58.90;;;;;;20636685;28;20031;-79
2022/01/10 11:33:32;;;;;;;4.38;2.33;;;13.20;56.70;;;;;;20638730;28;20660;-77
2022/01/10 11:43:40;;;;;;;4.00;2.03;;;14.10;54.70;;;;;;20960389;23;20042;-77
2022/01/10 11:53:42;;;;;;;5.90;2.28;;;14.80;52.60;;;;;;20569261;28;20126;-75
2022/01/10 12:03:42;;;;;;;4.20;2.03;;;15.30;51.20;;;;;;20553279;28;20041;-76
2022/01/10 12:13:43;;;;;;;3.50;1.60;;;15.50;50.60;;;;;;20583830;28;20043;-77
2022/01/10 12:23:44;;;;;;;5.57;2.20;;;15.40;50.40;;;;;;20601052;28;20042;-78
2022/01/10 12:33:45;;;;;;;6.18;2.03;;;15.30;50.40;;;;;;20646737;28;20386;-76
2022/01/10 12:43:47;;;;;;;4.77;2.03;;;15.00;50.70;;;;;;20645635;28;20277;-75
2022/01/10 12:53:48;;;;;;;4.28;1.95;;;14.30;52.00;;;;;;20567500;28;20389;-75
2022/01/10 13:03:53;;;;;;;4.53;2.30;;;13.70;53.50;;;;;;20597028;28;20049;-75
2022/01/10 13:13:54;;;;;;;3.55;1.92;;;13.10;54.80;;;;;;20512817;28;20086;-76
2022/01/10 13:24:11;;;;;;;3.83;1.42;;;12.70;55.80;;;;;;20582646;28;20039;-77
2022/01/10 13:34:38;;;;;;;4.72;1.80;;;12.50;56.80;;;;;;20594008;28;20101;-77
2022/01/10 13:44:50;;;;;;;2.97;1.60;;;12.20;57.50;;;;;;20574333;28;20057;-73
2022/01/10 13:54:51;;;;;;;3.35;1.88;;;12.10;57.90;;;;;;20578524;28;20045;-74
2022/01/10 14:04:51;;;;;;;3.72;1.50;;;12.10;58.10;;;;;;20583150;28;20470;-77
2022/01/10 14:14:55;;;;;;;4.15;1.20;;;12.10;58.30;;;;;;20612881;28;20465;-78
2022/01/10 14:24:56;;;;;;;5.57;1.30;;;12.20;58.30;;;;;;20541799;28;20034;-77
2022/01/10 14:34:56;;;;;;;4.03;1.83;;;12.20;58.30;;;;;;20619215;28;20026;-75
2022/01/10 14:44:57;;;;;;;5.32;1.67;;;12.20;58.40;;;;;;20654983;28;20055;-77
2022/01/10 14:54:58;;;;;;;3.17;1.60;;;12.20;58.50;;;;;;20581393;28;20117;-79
2022/01/10 15:04:58;;;;;;;4.38;2.22;;;12.20;58.60;;;;;;20556870;28;20624;-79
2022/01/10 15:15:01;;;;;;;4.00;1.83;;;12.10;58.80;;;;;;20556757;28;20039;-79
2022/01/10 15:25:03;;;;;;;3.15;1.88;;;12.10;58.90;;;;;;20565326;28;20034;-75
2022/01/10 15:35:06;;;;;;;9.05;1.90;;;12.00;59.00;;;;;;20609369;28;20394;-82
2022/01/10 15:45:08;;;;;;;11.68;3.60;;;12.10;59.10;;;;;;20581590;28;20054;-78
2022/01/10 15:55:10;;;;;;;7.95;3.70;;;12.80;57.80;;;;;;20583581;28;20038;-79
2022/01/10 16:05:11;;;;;;;5.38;2.63;;;13.70;55.80;;;;;;20580410;28;20027;-78
2022/01/10 16:15:19;;;;;;;5.45;2.78;;;14.50;54.00;;;;;;20534280;28;20052;-79
2022/01/10 16:25:21;;;;;;;8.07;2.20;;;15.00;52.40;;;;;;20606578;28;20049;-78
2022/01/10 16:35:22;;;;;;;8.80;2.20;;;15.30;51.70;;;;;;20618767;28;20097;-76
2022/01/10 16:45:22;;;;;;;5.03;2.08;;;15.30;51.30;;;;;;20613411;28;20042;-81
2022/01/10 16:55:23;;;;;;;4.05;1.58;;;15.20;51.20;;;;;;20618062;28;20042;-79
2022/01/10 17:05:24;;;;;;;4.60;1.80;;;15.00;51.40;;;;;;20634722;28;20038;-80
2022/01/10 17:15:25;;;;;;;5.30;1.35;;;14.40;52.50;;;;;;20660509;28;20068;-81
2022/01/10 17:25:26;;;;;;;3.40;1.70;;;13.70;53.90;;;;;;20643276;28;20184;-80
2022/01/10 17:35:27;;;;;;;6.13;2.00;;;13.20;55.20;;;;;;20611780;28;20366;-81
2022/01/10 17:45:27;;;;;;;4.15;1.80;;;12.80;56.30;;;;;;20577380;28;20066;-80
2022/01/10 17:55:30;;;;;;;5.57;2.13;;;12.50;57.20;;;;;;20576152;28;20034;-80
2022/01/10 18:05:30;;;;;;;6.15;1.95;;;12.20;57.90;;;;;;20638173;28;20117;-81
2022/01/10 18:15:31;;;;;;;5.20;1.42;;;12.10;58.40;;;;;;20654586;28;20066;-80
2022/01/10 18:25:31;;;;;;;3.00;1.27;;;12.10;58.80;;;;;;20639131;28;20092;-80
2022/01/10 18:35:32;;;;;;;4.28;1.30;;;12.10;58.90;;;;;;20621170;28;20038;-78
2022/01/10 18:45:33;;;;;;;2.90;1.37;;;12.10;58.90;;;;;;20641488;28;20110;-79
2022/01/10 18:55:33;;;;;;;3.50;1.40;;;12.10;58.90;;;;;;20624422;28;20368;-78
2022/01/10 19:05:34;;;;;;;3.60;1.38;;;12.20;58.90;;;;;;20653140;28;20097;-79
2022/01/10 19:15:34;;;;;;;5.13;1.67;;;12.20;58.80;;;;;;20654005;28;20088;-79
2022/01/10 19:25:35;;;;;;;2.67;1.48;;;12.20;58.80;;;;;;20653502;28;20125;-79
2022/01/10 19:35:36;;;;;;;2.58;1.20;;;12.20;58.80;;;;;;20635600;28;20042;-78
2022/01/10 19:45:36;;;;;;;2.13;1.30;;;12.30;58.80;;;;;;20636821;28;20412;-79
2022/01/10 19:55:37;;;;;;;1.85;1.00;;;12.20;58.80;;;;;;20635039;28;20293;-78
2022/01/10 20:05:37;;;;;;;2.17;1.10;;;12.20;58.80;;;;;;20649264;28;20133;-78
2022/01/10 20:15:38;;;;;;;2.90;1.50;;;12.20;58.80;;;;;;20649604;28;20038;-79
2022/01/10 20:25:45;;;;;;;4.25;1.80;;;12.20;58.80;;;;;;20649971;28;20358;-78
2022/01/10 20:35:46;;;;;;;;;;;12.20;58.90;;;;;;20648538;28;20440;-78
2022/01/10 20:45:46;;;;;;;3.25;2.00;;;12.20;58.90;;;;;;20648165;28;19955;-78
2022/01/10 20:55:47;;;;;;;1.92;1.27;;;12.20;58.90;;;;;;20648116;28;20444;-78
2022/01/10 21:05:48;;;;;;;2.40;1.33;;;12.20;58.90;;;;;;20648811;28;20042;-78
2022/01/10 21:15:49;;;;;;;1.92;1.20;;;12.20;59.00;;;;;;20613298;28;20038;-78
2022/01/10 21:25:52;;;;;;;2.97;1.50;;;12.20;59.00;;;;;;20624208;28;20038;-77
2022/01/10 21:35:54;;;;;;;2.58;1.10;;;12.20;59.00;;;;;;20644265;28;20062;-77
2022/01/10 21:45:54;;;;;;;2.78;1.23;;;12.20;59.00;;;;;;20619689;28;20437;-77
2022/01/10 21:55:55;;;;;;;2.67;1.60;;;12.20;59.00;;;;;;20674025;28;20039;-77
2022/01/10 22:05:56;;;;;;;2.83;1.33;;;12.20;59.30;;;;;;20641477;28;20055;-77
2022/01/10 22:15:57;;;;;;;2.85;1.15;;;12.10;59.00;;;;;;20640594;28;20034;-79
2022/01/10 22:25:57;;;;;;;2.75;1.30;;;12.10;59.10;;;;;;20623740;28;20041;-77
2022/01/10 22:35:59;;;;;;;1.90;1.25;;;12.10;59.10;;;;;;20654810;28;20046;-76
2022/01/10 22:45:59;;;;;;;3.33;1.42;;;12.10;59.10;;;;;;20654593;28;20400;-77
2022/01/10 22:56:00;;;;;;;2.78;1.30;;;12.10;59.10;;;;;;20670034;28;20117;-77
2022/01/10 23:06:02;;;;;;;5.35;1.40;;;12.10;59.10;;;;;;20652715;28;20109;-77
2022/01/10 23:16:03;;;;;;;2.08;1.30;;;12.10;59.20;;;;;;20651993;28;20041;-77
2022/01/10 23:26:04;;;;;;;2.00;1.40;;;12.10;59.20;;;;;;20619070;28;20177;-76
2022/01/10 23:36:05;;;;;;;1.58;0.90;;;12.10;59.20;;;;;;20635109;28;20071;-77
2022/01/10 23:46:05;;;;;;;2.58;1.35;;;12.10;59.20;;;;;;20634196;28;20034;-77
2022/01/10 23:56:06;;;;;;;1.83;1.10;;;12.10;59.20;;;;;;20648753;28;20125;-77
